createdAt,value
2023-04-15T00:04:18.912Z,100816.09
2023-04-15T00:09:16.648Z,100827.50
2023-04-15T00:14:08.369Z,100812.84
2023-04-15T00:19:03.523Z,100820.63
2023-04-15T00:24:02.222Z,100826.63
2023-04-15T00:28:55.925Z,100821.56
2023-04-15T00:33:50.165Z,100829.28
2023-04-15T00:38:43.579Z,100828.50
2023-04-15T00:43:34.208Z,100822.50
2023-04-15T00:48:28.613Z,100826.81
2023-04-15T00:53:20.448Z,100829.47
2023-04-15T00:58:13.028Z,100813.09
2023-04-15T01:03:06.848Z,100818.31
2023-04-15T01:08:04.615Z,100819.19
2023-04-15T01:12:55.535Z,100821.78
2023-04-15T01:17:48.113Z,100822.72
2023-04-15T01:22:39.966Z,100827.09
2023-04-15T01:27:34.863Z,100824.53
2023-04-15T01:32:28.634Z,100823.66
2023-04-15T01:37:23.799Z,100827.16
2023-04-15T01:42:15.904Z,100828.97
2023-04-15T01:47:10.389Z,100819.50
2023-04-15T01:52:02.327Z,100825.53
2023-04-15T01:56:56.766Z,100817.75
2023-04-15T02:01:49.325Z,100823.81
2023-04-15T02:06:42.936Z,100816.09
2023-04-15T02:11:45.576Z,100825.63
2023-04-15T02:16:41.863Z,100837.72
2023-04-15T02:21:36.195Z,100848.97
2023-04-15T02:26:32.647Z,100842.94
2023-04-15T02:31:23.598Z,100844.69
2023-04-15T02:36:18.669Z,100848.16
2023-04-15T02:41:11.724Z,100854.22
2023-04-15T02:46:15.072Z,100859.44
2023-04-15T02:51:16.477Z,100863.75
2023-04-15T02:56:08.847Z,100867.22
2023-04-15T03:01:08.097Z,100874.13
2023-04-15T03:06:08.123Z,100873.28
2023-04-15T03:11:03.116Z,100881.03
2023-04-15T03:15:58.279Z,100881.91
2023-04-15T03:20:54.270Z,100886.22
2023-04-15T03:25:50.970Z,100883.63
2023-04-15T03:30:46.270Z,100890.53
2023-04-15T03:35:41.495Z,100896.59
2023-04-15T03:40:38.696Z,100907.81
2023-04-15T03:45:46.758Z,100906.94
2023-04-15T03:50:40.247Z,100927.63
2023-04-15T03:55:35.194Z,100929.31
2023-04-15T04:00:31.035Z,100937.09
2023-04-15T04:05:26.222Z,100942.25
2023-04-15T04:10:20.068Z,100954.34
2023-04-15T04:15:15.407Z,100956.88
2023-04-15T04:20:06.594Z,100968.94
2023-04-15T04:25:15.825Z,100963.72
2023-04-15T04:30:11.075Z,100972.28
2023-04-15T04:35:04.084Z,100976.47
2023-04-15T04:39:58.769Z,100986.75
2023-04-15T04:45:00.788Z,100999.78
2023-04-15T04:49:55.419Z,101005.75
2023-04-15T04:54:56.170Z,101012.59
2023-04-15T04:59:48.111Z,101016.88
2023-04-15T05:04:50.470Z,101033.25
2023-04-15T05:09:55.172Z,101046.19
2023-04-15T05:14:56.240Z,101046.16
2023-04-15T05:19:55.258Z,101064.19
2023-04-15T05:24:55.086Z,101070.22
2023-04-15T05:29:45.666Z,101071.03
2023-04-15T05:34:46.630Z,101084.00
2023-04-15T05:39:40.508Z,101090.03
2023-04-15T05:44:48.876Z,101108.19
2023-04-15T05:49:49.446Z,101110.88
2023-04-15T05:54:59.180Z,101119.44
2023-04-15T05:59:55.803Z,101133.31
2023-04-15T06:04:57.930Z,101143.72
2023-04-15T06:10:08.969Z,101150.56
2023-04-15T06:15:01.729Z,101159.19
2023-04-15T06:19:59.591Z,101174.75
2023-04-15T06:24:51.522Z,101187.63
2023-04-15T06:29:47.372Z,101197.09
2023-04-15T06:34:47.788Z,101217.00
2023-04-15T06:39:47.395Z,101233.41
2023-04-15T06:44:49.654Z,101227.44
2023-04-15T06:49:54.022Z,101232.78
2023-04-15T06:54:49.113Z,101234.56
2023-04-15T06:59:53.792Z,101239.81
2023-04-15T07:04:48.559Z,101249.41
2023-04-15T07:09:59.858Z,101253.72
2023-04-15T07:14:51.964Z,101257.25
2023-04-15T07:19:44.298Z,101253.94
2023-04-15T07:24:41.045Z,101267.84
2023-04-15T07:29:31.964Z,101271.44
2023-04-15T07:34:23.812Z,101280.13
2023-04-15T07:39:14.423Z,101293.09
2023-04-15T07:44:09.787Z,101307.88
2023-04-15T07:49:05.414Z,101315.69
2023-04-15T07:54:00.935Z,101315.72
2023-04-15T07:58:51.290Z,101329.56
2023-04-15T08:03:51.107Z,101328.66
2023-04-15T08:08:44.135Z,101343.16
2023-04-15T08:13:37.667Z,101332.19
2023-04-15T08:18:34.038Z,101360.06
2023-04-15T08:23:31.074Z,101373.03
2023-04-15T08:28:28.708Z,101375.34
2023-04-15T08:33:27.797Z,101384.38
2023-04-15T08:38:20.201Z,101399.25
2023-04-15T08:43:27.523Z,101407.41
2023-04-15T08:48:22.873Z,101411.06
2023-04-15T08:53:19.660Z,101417.84
2023-04-15T08:58:11.879Z,101429.31
2023-04-15T09:03:09.521Z,101431.81
2023-04-15T09:08:11.244Z,101437.16
2023-04-15T09:13:03.754Z,101446.03
2023-04-15T09:17:57.799Z,101449.22
2023-04-15T09:22:56.384Z,101455.09
2023-04-15T09:27:52.025Z,101459.53
2023-04-15T09:32:53.390Z,101471.91
2023-04-15T09:37:50.613Z,101483.31
2023-04-15T09:42:57.821Z,101484.47
2023-04-15T09:47:48.499Z,101481.34
2023-04-15T09:52:47.589Z,101500.41
2023-04-15T09:57:44.766Z,101496.63
2023-04-15T10:02:37.742Z,101511.31
2023-04-15T10:07:30.374Z,101510.66
2023-04-15T10:12:20.961Z,101514.09
2023-04-15T10:17:35.735Z,101514.44
2023-04-15T10:22:41.727Z,101526.03
2023-04-15T10:27:43.425Z,101529.47
2023-04-15T10:32:45.088Z,101523.66
2023-04-15T10:38:05.420Z,101527.41
2023-04-15T10:43:14.630Z,101526.13
2023-04-15T10:48:13.408Z,101541.66
2023-04-15T10:53:15.135Z,101543.72
2023-04-15T10:58:10.400Z,101544.28
2023-04-15T11:03:05.883Z,101562.09
2023-04-15T11:08:03.654Z,101555.53
2023-04-15T11:13:02.993Z,101569.88
2023-04-15T11:18:01.597Z,101583.47
2023-04-15T11:23:14.640Z,101584.78
2023-04-15T11:28:21.143Z,101580.63
2023-04-15T11:33:20.486Z,101606.06
2023-04-15T11:38:18.216Z,101608.38
2023-04-15T11:43:43.120Z,101615.28
2023-04-15T11:49:15.496Z,101620.00
2023-04-15T11:54:39.494Z,101624.94
2023-04-15T11:59:39.006Z,101632.94
2023-04-15T12:04:43.944Z,101629.81
2023-04-15T12:09:41.691Z,101612.66
2023-04-15T12:14:41.813Z,101636.25
2023-04-15T12:19:35.339Z,101646.44
2023-04-15T12:24:33.926Z,101641.16
2023-04-15T12:29:27.677Z,101648.94
2023-04-15T12:34:23.150Z,101664.84
2023-04-15T12:39:25.533Z,101670.13
2023-04-15T12:44:37.590Z,101672.63
2023-04-15T12:49:32.463Z,101680.44
2023-04-15T12:54:51.827Z,101672.19
2023-04-15T12:59:49.644Z,101696.41
2023-04-15T13:04:44.163Z,101701.56
2023-04-15T13:09:38.556Z,101685.94
2023-04-15T13:14:31.728Z,101713.22
2023-04-15T13:19:28.457Z,101709.81
2023-04-15T13:24:25.071Z,101710.69
2023-04-15T13:29:21.827Z,101688.41
2023-04-15T13:34:15.625Z,101706.69
2023-04-15T13:39:16.997Z,101719.34
2023-04-15T13:44:12.987Z,101731.31
2023-04-15T13:49:04.122Z,101735.72
2023-04-15T13:53:55.787Z,101738.81
2023-04-15T13:58:49.761Z,101752.03
2023-04-15T14:03:43.766Z,101751.31
2023-04-15T14:08:38.629Z,101743.41
2023-04-15T14:13:50.462Z,101768.94
2023-04-15T14:19:00.556Z,101765.78
2023-04-15T14:23:56.832Z,101777.53
2023-04-15T14:28:52.227Z,101723.94
2023-04-15T14:33:49.168Z,101767.53
2023-04-15T14:38:48.522Z,101775.53
2023-04-15T14:43:48.728Z,101790.13
2023-04-15T14:48:42.950Z,101809.66
2023-04-15T14:53:43.646Z,101813.16
2023-04-15T14:58:45.659Z,101832.28
2023-04-15T15:03:43.330Z,101820.31
2023-04-15T15:08:50.770Z,101834.94
2023-04-15T15:13:47.038Z,101845.63
2023-04-15T15:18:37.419Z,101809.38
2023-04-15T15:23:31.159Z,101855.34
2023-04-15T15:28:30.613Z,101859.03
2023-04-15T15:33:23.677Z,101869.34
2023-04-15T15:38:15.940Z,101864.19
2023-04-15T15:43:08.955Z,101890.47
2023-04-15T15:48:01.925Z,101889.78
2023-04-15T15:52:53.914Z,101896.81
2023-04-15T15:57:44.182Z,101889.81
2023-04-15T16:03:04.162Z,101909.72
2023-04-15T16:07:53.049Z,101917.44
2023-04-15T16:12:45.277Z,101920.13
2023-04-15T16:17:39.543Z,101922.84
2023-04-15T16:22:31.531Z,101930.72
2023-04-15T16:27:27.351Z,101893.41
2023-04-15T16:32:30.449Z,101937.63
2023-04-15T16:37:20.954Z,101949.97
2023-04-15T16:42:13.820Z,101957.00
2023-04-15T16:47:10.356Z,101963.94
2023-04-15T16:52:09.329Z,101977.94
2023-04-15T16:57:06.997Z,101978.81
2023-04-15T17:01:58.050Z,101984.91
2023-04-15T17:06:53.006Z,101990.97
2023-04-15T17:11:55.032Z,101997.03
2023-04-15T17:16:50.630Z,101987.41
2023-04-15T17:21:46.137Z,102006.56
2023-04-15T17:26:40.805Z,102009.22
2023-04-15T17:31:39.876Z,101985.69
2023-04-15T17:36:37.023Z,102024.75
2023-04-15T17:41:47.628Z,102023.88
2023-04-15T17:46:42.294Z,102032.56
2023-04-15T17:51:37.300Z,102026.41
2023-04-15T17:56:32.461Z,102032.38
2023-04-15T18:01:25.561Z,102056.66
2023-04-15T18:06:17.358Z,102064.34
2023-04-15T18:11:11.265Z,102064.84
2023-04-15T18:16:12.830Z,102073.41
2023-04-15T18:21:17.700Z,102082.50
2023-04-15T18:26:12.340Z,102089.25
2023-04-15T18:31:06.434Z,102104.69
2023-04-15T18:36:07.548Z,102106.16
2023-04-15T18:41:07.693Z,102107.78
2023-04-15T18:46:06.598Z,102111.28
2023-04-15T18:51:02.311Z,102125.72
2023-04-15T18:56:00.160Z,102134.25
2023-04-15T19:01:12.733Z,102134.06
2023-04-15T19:06:17.297Z,102142.53
2023-04-15T19:11:10.377Z,102159.56
2023-04-15T19:16:05.791Z,102162.22
2023-04-15T19:21:07.715Z,102164.63
2023-04-15T19:26:03.854Z,102175.75
2023-04-15T19:30:59.285Z,102178.34
2023-04-15T19:35:57.603Z,102182.66
2023-04-15T19:40:48.495Z,102185.28
2023-04-15T19:45:40.585Z,102199.09
2023-04-15T19:50:30.836Z,102198.00
2023-04-15T19:55:25.212Z,102200.44
2023-04-15T20:00:17.159Z,102195.16
2023-04-15T20:05:11.868Z,102199.53
2023-04-15T20:10:12.567Z,102200.25
2023-04-15T20:15:07.939Z,102190.66
2023-04-15T20:19:58.039Z,102188.78
2023-04-15T20:24:50.675Z,102194.06
2023-04-15T20:29:48.152Z,102199.88
2023-04-15T20:34:45.535Z,102203.34
2023-04-15T20:39:39.322Z,102210.22
2023-04-15T20:44:33.605Z,102209.41
2023-04-15T20:49:29.991Z,102211.09
2023-04-15T20:54:25.934Z,102219.59
2023-04-15T20:59:17.070Z,102219.53
2023-04-15T21:04:15.359Z,102224.91
2023-04-15T21:09:15.389Z,102224.78
2023-04-15T21:14:12.021Z,102229.00
2023-04-15T21:19:06.573Z,102232.28
2023-04-15T21:23:58.627Z,102232.44
2023-04-15T21:28:49.291Z,102224.84
2023-04-15T21:33:45.528Z,102227.53
2023-04-15T21:38:44.782Z,102226.78
2023-04-15T21:43:43.213Z,102244.06
2023-04-15T21:48:34.663Z,102246.53
2023-04-15T21:53:28.533Z,102254.41
2023-04-15T21:58:21.749Z,102258.97
2023-04-15T22:03:12.680Z,102265.88
2023-04-15T22:08:06.468Z,102268.56
2023-04-15T22:13:07.659Z,102276.34
2023-04-15T22:18:08.855Z,102269.59
2023-04-15T22:23:00.682Z,102268.75
2023-04-15T22:27:59.831Z,102269.34
2023-04-15T22:32:54.428Z,102266.91
2023-04-15T22:37:51.292Z,102272.00
2023-04-15T22:42:44.924Z,102274.59
2023-04-15T22:47:43.705Z,102280.63
2023-04-15T22:52:38.665Z,102276.56
2023-04-15T22:57:33.580Z,102281.81
2023-04-15T23:02:27.704Z,102294.69
2023-04-15T23:07:18.340Z,102304.19
2023-04-15T23:12:13.763Z,102310.97
2023-04-15T23:17:07.451Z,102308.59
2023-04-15T23:22:07.008Z,102305.09
2023-04-15T23:27:01.851Z,102304.16
2023-04-15T23:31:59.546Z,102303.94
2023-04-15T23:37:02.901Z,102312.09
2023-04-15T23:42:05.198Z,102313.72
2023-04-15T23:47:07.043Z,102298.59
2023-04-15T23:51:58.607Z,102321.09
2023-04-15T23:56:52.783Z,102309.03
